This is the latest recevied weather packets stored in our database for station/object OK1FET-5. If no packets are shown the sender has not sent any weather packets the latest 10 day(s).
| Time | Temp. | Humidity | Pressure | Rain* | Wind** | Luminosity | Snow |
|---|---|---|---|---|---|---|---|
| 1778096583 | 14.44° C | 73% | 1006.1 hPa | - | - | - | - |
| 1778096288 | 14.44° C | 68% | 1006 hPa | - | - | - | - |
| 1778095994 | 14.44° C | 68% | 1006 hPa | - | - | - | - |
| 1778095699 | 14.44° C | 64% | 1006.1 hPa | - | - | - | - |
| 1778095405 | 14.44° C | 65% | 1006.1 hPa | - | - | - | - |
| 1778095110 | 14.44° C | 65% | 1006 hPa | - | - | - | - |
| 1778094522 | 14.44° C | 64% | 1006.2 hPa | - | - | - | - |
| 1778094227 | 14.44° C | 62% | 1006.2 hPa | - | - | - | - |
| 1778093933 | 14.44° C | 63% | 1006.2 hPa | - | - | - | - |
| 1778093638 | 14.44° C | 64% | 1006.1 hPa | - | - | - | - |
| 1778093344 | 14.44° C | 64% | 1005.9 hPa | - | - | - | - |
| 1778093050 | 14.44° C | 65% | 1005.8 hPa | - | - | - | - |
| 1778092755 | 15° C | 64% | 1005.8 hPa | - | - | - | - |
| 1778092461 | 15° C | 64% | 1005.7 hPa | - | - | - | - |
| 1778092166 | 15.56° C | 63% | 1005.6 hPa | - | - | - | - |
| 1778091872 | 15.56° C | 63% | 1005.5 hPa | - | - | - | - |
| 1778091577 | 15.56° C | 62% | 1005.3 hPa | - | - | - | - |
| 1778090988 | 16.11° C | 61% | 1005.2 hPa | - | - | - | - |
| 1778090694 | 16.11° C | 62% | 1005.3 hPa | - | - | - | - |
| 1778090399 | 16.11° C | 65% | 1005.2 hPa | - | - | - | - |
| 1778090105 | 16.11° C | 72% | 1005.1 hPa | - | - | - | - |
| 1778089810 | 16.11° C | 76% | 1005 hPa | - | - | - | - |
| 1778089515 | 16.11° C | 68% | 1005.1 hPa | - | - | - | - |
| 1778089221 | 16.67° C | 57% | 1005.3 hPa | - | - | - | - |
| 1778088926 | 17.22° C | 54% | 1005.2 hPa | - | - | - | - |
* Rain since midnight (hover to see other rain measurements)
** Current wind speed in m/s (hover to see current wind gust speed)